createdAt,value
2023-04-17T00:09:41.216Z,3.28
2023-04-17T00:20:04.030Z,3.25
2023-04-17T00:30:25.469Z,2.88
2023-04-17T00:40:47.568Z,2.90
2023-04-17T00:51:09.457Z,2.60
2023-04-17T01:01:30.720Z,2.80
2023-04-17T01:11:52.193Z,2.30
2023-04-17T01:22:16.619Z,2.20
2023-04-17T01:32:39.108Z,2.75
2023-04-17T01:43:01.239Z,3.10
2023-04-17T01:53:22.768Z,2.10
2023-04-17T02:03:44.056Z,2.42
2023-04-17T02:14:05.992Z,2.30
2023-04-17T02:24:27.628Z,2.03
2023-04-17T02:34:48.708Z,2.65
2023-04-17T02:45:11.894Z,2.45
2023-04-17T02:55:34.408Z,2.22
2023-04-17T03:05:56.298Z,2.47
2023-04-17T03:16:18.063Z,2.30
2023-04-17T03:26:41.233Z,2.50
2023-04-17T03:37:09.408Z,2.45
2023-04-17T03:47:31.117Z,2.38
2023-04-17T03:57:52.438Z,2.00
2023-04-17T04:08:14.676Z,2.58
2023-04-17T04:18:41.062Z,2.17
2023-04-17T04:29:03.084Z,2.10
2023-04-17T04:39:41.995Z,2.30
2023-04-17T04:50:07.941Z,2.27
2023-04-17T05:00:31.362Z,2.20
2023-04-17T05:10:55.775Z,2.42
2023-04-17T05:21:17.947Z,2.17
2023-04-17T05:31:43.307Z,2.13
2023-04-17T05:42:18.601Z,2.42
2023-04-17T05:52:40.088Z,2.03
2023-04-17T06:03:06.328Z,2.55
2023-04-17T06:13:34.191Z,2.20
2023-04-17T06:23:55.826Z,2.17
2023-04-17T06:34:17.003Z,2.38
2023-04-17T06:44:40.953Z,2.55
2023-04-17T06:55:07.922Z,2.55
2023-04-17T07:05:29.152Z,2.58
2023-04-17T07:15:57.329Z,2.33
2023-04-17T07:26:18.540Z,2.60
2023-04-17T07:36:39.943Z,2.15
2023-04-17T07:47:01.713Z,2.38
2023-04-17T07:57:26.582Z,2.17
2023-04-17T08:07:48.203Z,2.90
2023-04-17T08:18:10.062Z,2.42
2023-04-17T08:28:32.048Z,3.22
2023-04-17T08:38:53.450Z,2.90
2023-04-17T08:49:15.664Z,2.97
2023-04-17T08:59:36.600Z,2.58
2023-04-17T09:09:57.932Z,2.63
2023-04-17T09:20:19.261Z,2.53
2023-04-17T09:30:41.624Z,2.75
2023-04-17T09:41:02.692Z,2.88
2023-04-17T09:51:24.035Z,2.90
2023-04-17T10:01:45.883Z,3.10
2023-04-17T10:12:11.252Z,2.95
2023-04-17T10:22:32.574Z,3.05
2023-04-17T10:33:22.092Z,2.47
2023-04-17T10:43:44.930Z,3.20
2023-04-17T10:54:06.675Z,2.88
2023-04-17T11:04:29.803Z,2.85
2023-04-17T11:14:51.139Z,2.75
2023-04-17T11:25:27.140Z,3.08
2023-04-17T11:35:48.421Z,2.97
2023-04-17T11:46:09.913Z,2.60
2023-04-17T11:56:31.282Z,2.75
2023-04-17T12:06:52.214Z,2.75
2023-04-17T12:17:13.290Z,2.60
2023-04-17T12:27:37.558Z,2.33
2023-04-17T12:37:58.877Z,2.80
2023-04-17T12:48:20.024Z,2.60
2023-04-17T12:58:41.213Z,2.70
2023-04-17T13:09:02.472Z,2.63
2023-04-17T13:19:23.813Z,2.85
2023-04-17T13:29:45.090Z,2.88
2023-04-17T13:40:10.106Z,2.47
2023-04-17T13:50:31.810Z,3.22
2023-04-17T14:00:53.079Z,2.88
2023-04-17T14:11:15.590Z,2.70
2023-04-17T14:21:37.637Z,3.33
2023-04-17T14:31:59.225Z,2.97
2023-04-17T14:42:20.329Z,2.95
2023-04-17T14:52:41.388Z,2.88
2023-04-17T15:03:03.660Z,2.78
2023-04-17T15:13:25.310Z,3.03
2023-04-17T15:23:46.602Z,2.80
2023-04-17T15:34:07.849Z,2.67
2023-04-17T15:44:29.592Z,3.17
2023-04-17T15:54:50.705Z,2.70
2023-04-17T16:05:11.633Z,3.00
2023-04-17T16:15:33.011Z,2.88
2023-04-17T16:25:55.452Z,3.08
2023-04-17T16:36:16.514Z,2.75
2023-04-17T16:46:52.141Z,2.75
2023-04-17T16:57:19.177Z,3.28
2023-04-17T17:07:40.050Z,3.45
2023-04-17T17:18:01.073Z,4.05
2023-04-17T17:28:22.526Z,4.22
2023-04-17T17:38:44.131Z,5.35
2023-04-17T17:49:05.394Z,5.50
2023-04-17T17:59:26.947Z,5.70
2023-04-17T18:09:50.174Z,5.57
2023-04-17T18:20:12.250Z,6.53
2023-04-17T18:30:33.677Z,6.18
2023-04-17T18:40:59.726Z,6.47
2023-04-17T18:51:21.785Z,6.57
2023-04-17T19:01:45.796Z,6.50
2023-04-17T19:12:07.056Z,6.95
2023-04-17T19:22:28.671Z,7.05
2023-04-17T19:32:49.861Z,7.20
2023-04-17T19:43:11.017Z,7.38
2023-04-17T19:53:34.423Z,7.32
2023-04-17T20:03:55.462Z,6.78
2023-04-17T20:14:19.904Z,7.43
2023-04-17T20:24:40.923Z,7.60
2023-04-17T20:35:02.891Z,7.97
2023-04-17T20:45:23.918Z,8.02
2023-04-17T20:55:47.079Z,8.80
2023-04-17T21:06:08.508Z,7.85
2023-04-17T21:16:31.370Z,8.07
2023-04-17T21:26:58.493Z,8.63
2023-04-17T21:37:19.621Z,8.35
2023-04-17T21:47:40.848Z,8.23
2023-04-17T21:58:02.218Z,8.23
2023-04-17T22:08:24.280Z,8.35
2023-04-17T22:18:45.313Z,9.13
2023-04-17T22:29:06.349Z,9.38
2023-04-17T22:39:27.588Z,10.30
2023-04-17T22:49:48.827Z,9.18
2023-04-17T23:00:10.436Z,9.27
2023-04-17T23:10:31.820Z,9.02
2023-04-17T23:20:53.085Z,9.45
2023-04-17T23:31:14.435Z,10.38
2023-04-17T23:41:35.637Z,9.43
2023-04-17T23:51:56.768Z,10.10
